Time,TemperatureF,DewpointF,PressureIn,WindDirection,WindDirectionDegrees,WindSpeedMPH,WindSpeedGustMPH,Humidity,HourlyPrecipIn,Conditions,Clouds,dailyrainin,SolarRadiationWatts/m^2,SoftwareType,DateUTC
2016-02-08 00:01:00,26.9,16.4,29.68,North,0,0.0,0.0,64,0.00,,,0.00,0,WeatherCatV2.20B280,2016-02-08 05:01:00,
2016-02-08 00:06:00,26.7,14.3,29.69,East,82,0.0,2.0,59,0.00,,,0.00,0,WeatherCatV2.20B280,2016-02-08 05:06:00,
2016-02-08 00:11:00,26.4,13.6,29.68,ENE,70,0.0,0.0,58,0.00,,,0.00,0,WeatherCatV2.20B280,2016-02-08 05:11:00,
2016-02-08 00:16:00,26.2,13.9,29.68,ENE,69,0.0,1.0,59,0.00,,,0.00,0,WeatherCatV2.20B280,2016-02-08 05:16:00,
2016-02-08 00:21:00,26.0,13.3,29.68,ENE,69,0.0,1.0,58,0.00,,,0.00,0,WeatherCatV2.20B280,2016-02-08 05:21:00,
2016-02-08 00:26:00,25.8,12.3,29.69,ENE,72,1.0,3.0,56,0.00,,,0.00,0,WeatherCatV2.20B280,2016-02-08 05:26:00,
2016-02-08 00:31:00,25.6,11.3,29.68,ENE,65,1.0,1.0,54,0.00,,,0.00,0,WeatherCatV2.20B280,2016-02-08 05:31:00,
2016-02-08 00:36:00,25.3,10.6,29.69,ENE,61,0.0,1.0,53,0.00,,,0.00,0,WeatherCatV2.20B280,2016-02-08 05:36:00,
2016-02-08 00:41:00,25.1,8.7,29.68,ENE,59,0.0,4.0,49,0.00,,,0.00,0,WeatherCatV2.20B280,2016-02-08 05:41:00,
2016-02-08 00:46:00,24.9,9.8,29.68,ENE,76,1.0,2.0,52,0.00,,,0.00,0,WeatherCatV2.20B280,2016-02-08 05:46:00,
2016-02-08 00:51:00,24.6,7.7,29.67,NE,51,2.0,2.0,48,0.00,,,0.00,0,WeatherCatV2.20B280,2016-02-08 05:51:00,
2016-02-08 00:56:00,24.4,7.6,29.68,ENE,61,0.0,2.0,48,0.00,,,0.00,0,WeatherCatV2.20B280,2016-02-08 05:56:00,
2016-02-08 01:01:00,24.2,7.4,29.68,ENE,58,0.0,1.0,48,0.00,,,0.00,0,WeatherCatV2.20B280,2016-02-08 06:01:00,
2016-02-08 01:06:00,24.0,6.3,29.68,ENE,76,0.0,2.0,46,0.00,,,0.00,0,WeatherCatV2.20B280,2016-02-08 06:06:00,
2016-02-08 01:11:00,23.8,7.5,29.68,NE,55,1.0,1.0,49,0.00,,,0.00,0,WeatherCatV2.20B280,2016-02-08 06:11:00,
2016-02-08 01:16:00,23.7,8.7,29.67,NE,55,0.0,1.0,52,0.00,,,0.00,0,WeatherCatV2.20B280,2016-02-08 06:16:00,
2016-02-08 01:21:00,23.6,8.2,29.67,NE,55,0.0,1.0,51,0.00,,,0.00,0,WeatherCatV2.20B280,2016-02-08 06:21:00,
2016-02-08 01:26:00,23.4,7.5,29.67,NE,55,0.0,1.0,50,0.00,,,0.00,0,WeatherCatV2.20B280,2016-02-08 06:26:00,
2016-02-08 01:31:00,23.2,7.3,29.67,NE,55,0.0,0.0,50,0.00,,,0.00,0,WeatherCatV2.20B280,2016-02-08 06:31:00,
2016-02-08 01:36:00,23.0,6.7,29.67,NE,56,0.0,1.0,49,0.00,,,0.00,0,WeatherCatV2.20B280,2016-02-08 06:36:00,
2016-02-08 01:41:00,22.9,7.5,29.67,ENE,60,0.0,0.0,51,0.00,,,0.00,0,WeatherCatV2.20B280,2016-02-08 06:41:00,
2016-02-08 01:46:00,22.7,6.9,29.67,ENE,60,0.0,1.0,50,0.00,,,0.00,0,WeatherCatV2.20B280,2016-02-08 06:46:00,
2016-02-08 01:51:00,22.5,5.8,29.67,ENE,60,0.0,0.0,48,0.00,,,0.00,0,WeatherCatV2.20B280,2016-02-08 06:51:00,
2016-02-08 01:56:00,22.3,6.1,29.67,ENE,60,0.0,1.0,49,0.00,,,0.00,0,WeatherCatV2.20B280,2016-02-08 06:56:00,
2016-02-08 02:01:00,22.2,5.5,29.67,ENE,60,0.0,0.0,48,0.00,,,0.00,0,WeatherCatV2.20B280,2016-02-08 07:01:00,
2016-02-08 02:06:00,22.1,7.2,29.67,ENE,59,0.0,2.0,52,0.00,,,0.00,0,WeatherCatV2.20B280,2016-02-08 07:06:00,
2016-02-08 02:11:00,22.0,6.7,29.67,North,5,0.0,2.0,51,0.00,,,0.00,0,WeatherCatV2.20B280,2016-02-08 07:11:00,
2016-02-08 02:16:00,21.8,7.3,29.67,North,5,0.0,2.0,53,0.00,,,0.00,0,WeatherCatV2.20B280,2016-02-08 07:16:00,
2016-02-08 02:21:00,21.7,6.4,29.67,North,5,0.0,1.0,51,0.00,,,0.00,0,WeatherCatV2.20B280,2016-02-08 07:21:00,
2016-02-08 02:26:00,21.5,6.2,29.66,ENE,73,0.0,1.0,51,0.00,,,0.00,0,WeatherCatV2.20B280,2016-02-08 07:26:00,
2016-02-08 02:31:00,21.4,6.1,29.66,ENE,61,0.0,1.0,51,0.00,,,0.00,0,WeatherCatV2.20B280,2016-02-08 07:31:00,
2016-02-08 02:36:00,21.3,6.9,29.66,NE,51,0.0,2.0,53,0.00,,,0.00,0,WeatherCatV2.20B280,2016-02-08 07:36:00,
2016-02-08 02:41:00,21.1,6.3,29.66,NNE,12,2.0,2.0,52,0.00,,,0.00,0,WeatherCatV2.20B280,2016-02-08 07:41:00,
2016-02-08 02:46:00,21.1,6.3,29.66,NNE,12,0.0,2.0,52,0.00,,,0.00,0,WeatherCatV2.20B280,2016-02-08 07:46:00,
2016-02-08 02:51:00,20.9,6.1,29.66,NE,48,0.0,0.0,52,0.00,,,0.00,0,WeatherCatV2.20B280,2016-02-08 07:51:00,
2016-02-08 02:56:00,20.7,5.0,29.65,East,80,1.0,1.0,50,0.00,,,0.00,0,WeatherCatV2.20B280,2016-02-08 07:56:00,
2016-02-08 03:01:00,20.6,4.9,29.65,ENE,61,1.0,1.0,50,0.00,,,0.00,0,WeatherCatV2.20B280,2016-02-08 08:01:00,
2016-02-08 03:06:00,20.4,5.2,29.65,NE,51,0.0,1.0,51,0.00,,,0.00,0,WeatherCatV2.20B280,2016-02-08 08:06:00,
2016-02-08 03:11:00,20.3,5.5,29.64,NE,36,0.0,0.0,52,0.00,,,0.00,0,WeatherCatV2.20B280,2016-02-08 08:11:00,
2016-02-08 03:16:00,20.2,6.2,29.64,NE,38,0.0,1.0,54,0.00,,,0.00,0,WeatherCatV2.20B280,2016-02-08 08:16:00,
2016-02-08 03:21:00,20.0,4.8,29.64,NNE,12,0.0,2.0,51,0.00,,,0.00,0,WeatherCatV2.20B280,2016-02-08 08:21:00,
2016-02-08 03:26:00,19.9,5.2,29.64,NNE,13,0.0,1.0,52,0.00,,,0.00,0,WeatherCatV2.20B280,2016-02-08 08:26:00,
2016-02-08 03:31:00,19.7,5.0,29.64,NNE,13,0.0,1.0,52,0.00,,,0.00,0,WeatherCatV2.20B280,2016-02-08 08:31:00,
2016-02-08 03:41:00,19.7,5.8,29.64,NNE,13,1.0,1.0,54,0.00,,,0.00,0,WeatherCatV2.20B280,2016-02-08 08:41:00,
2016-02-08 03:46:00,19.5,4.8,29.64,North,350,1.0,2.0,52,0.00,,,0.00,0,WeatherCatV2.20B280,2016-02-08 08:46:00,
2016-02-08 03:51:00,19.4,4.7,29.64,North,5,3.0,5.0,52,0.00,,,0.00,0,WeatherCatV2.20B280,2016-02-08 08:51:00,
2016-02-08 03:56:00,19.3,4.2,29.63,North,355,2.0,5.0,51,0.00,,,0.00,0,WeatherCatV2.20B280,2016-02-08 08:56:00,
2016-02-08 04:01:00,19.2,3.2,29.63,North,5,2.0,6.0,49,0.00,,,0.00,0,WeatherCatV2.20B280,2016-02-08 09:01:00,
2016-02-08 04:06:00,19.1,2.7,29.63,North,5,2.0,7.0,48,0.00,,,0.00,0,WeatherCatV2.20B280,2016-02-08 09:06:00,
2016-02-08 04:11:00,19.1,2.7,29.63,North,10,5.0,7.0,48,0.00,,,0.00,0,WeatherCatV2.20B280,2016-02-08 09:11:00,
2016-02-08 04:16:00,19.0,1.7,29.62,NNE,14,0.0,5.0,46,0.00,,,0.00,0,WeatherCatV2.20B280,2016-02-08 09:16:00,
2016-02-08 04:21:00,18.8,1.5,29.62,North,355,4.0,12.0,46,0.00,,,0.00,0,WeatherCatV2.20B280,2016-02-08 09:21:00,
2016-02-08 04:26:00,18.7,2.3,29.61,North,355,4.0,9.0,48,0.00,,,0.00,0,WeatherCatV2.20B280,2016-02-08 09:26:00,
2016-02-08 04:31:00,18.6,0.8,29.61,NNE,13,5.0,10.0,45,0.00,,,0.00,0,WeatherCatV2.20B280,2016-02-08 09:31:00,
2016-02-08 04:36:00,18.4,0.6,29.61,NNW,345,4.0,6.0,45,0.00,,,0.00,0,WeatherCatV2.20B280,2016-02-08 09:36:00,
2016-02-08 04:41:00,18.3,1.0,29.61,North,5,7.0,10.0,46,0.00,,,0.00,0,WeatherCatV2.20B280,2016-02-08 09:41:00,
2016-02-08 04:46:00,18.2,1.4,29.61,North,0,2.0,6.0,47,0.00,,,0.00,0,WeatherCatV2.20B280,2016-02-08 09:46:00,
2016-02-08 04:51:00,18.1,1.3,29.61,NNW,344,4.0,6.0,47,0.00,,,0.00,0,WeatherCatV2.20B280,2016-02-08 09:51:00,
2016-02-08 04:56:00,18.0,-0.7,29.61,North,5,3.0,3.0,43,0.00,,,0.00,0,WeatherCatV2.20B280,2016-02-08 09:56:00,
2016-02-08 05:01:00,17.9,1.1,29.62,North,11,1.0,5.0,47,0.00,,,0.00,0,WeatherCatV2.20B280,2016-02-08 10:01:00,
2016-02-08 05:06:00,17.9,1.1,29.62,North,5,2.0,4.0,47,0.00,,,0.00,0,WeatherCatV2.20B280,2016-02-08 10:06:00,
2016-02-08 05:11:00,17.8,0.6,29.62,NNW,347,5.0,9.0,46,0.00,,,0.00,0,WeatherCatV2.20B280,2016-02-08 10:11:00,